Time;durP1;ratioP1;P1;durP2;ratioP2;P2;SDS_P1;SDS_P2;PMS_P1;PMS_P2;Temp;Humidity;BMP_temperature;BMP_pressure;BME280_temperature;BME280_humidity;BME280_pressure;Samples;Min_cycle;Max_cycle;Signal;HPM_P1;HPM_P2
2021/04/23 00:00:18;;;;;;;9.35;7.90;;;;;;;16.79;45.32;100551.81;1802491;79;21155;-77
2021/04/23 00:02:46;;;;;;;9.65;7.75;;;;;;;16.89;45.19;100554.17;1802400;79;21176;-78
2021/04/23 00:05:16;;;;;;;12.03;8.75;;;;;;;16.93;45.16;100560.86;1802241;79;21156;-79
2021/04/23 00:07:43;;;;;;;24.05;12.40;;;;;;;17.03;45.14;100580.81;1802440;79;21111;-78
2021/04/23 00:10:12;;;;;;;49.93;17.85;;;;;;;17.14;45.06;100579.76;1778414;79;21123;-79
2021/04/23 00:12:40;;;;;;;43.75;15.95;;;;;;;17.24;44.92;100576.17;1779009;79;21143;-77
2021/04/23 00:15:13;;;;;;;22.42;12.03;;;;;;;17.35;44.71;100576.16;1803705;79;21198;-77
2021/04/23 00:17:41;;;;;;;17.23;10.55;;;;;;;17.42;44.53;100562.63;1804092;79;21559;-77
2021/04/23 00:20:14;;;;;;;15.20;9.38;;;;;;;17.50;44.36;100573.31;1803643;79;21112;-79
2021/04/23 00:22:42;;;;;;;14.40;9.63;;;;;;;17.49;44.28;100571.64;1779382;79;21503;-80
2021/04/23 00:25:12;;;;;;;13.62;9.90;;;;;;;17.49;44.12;100560.28;1803388;79;21131;-80
2021/04/23 00:27:42;;;;;;;13.85;10.38;;;;;;;17.49;44.04;100564.88;1803318;79;21083;-78
2021/04/23 00:30:13;;;;;;;15.60;10.98;;;;;;;17.49;43.96;100568.94;1803357;79;21582;-80
2021/04/23 00:32:53;;;;;;;18.70;11.12;;;;;;;17.47;43.93;100563.70;1803405;79;21057;-79
2021/04/23 00:35:24;;;;;;;23.38;13.45;;;;;;;17.42;43.95;100558.05;1780382;79;21048;-79
2021/04/23 00:37:52;;;;;;;24.82;14.20;;;;;;;17.36;44.04;100554.80;1803505;79;21064;-77
2021/04/23 00:40:33;;;;;;;25.45;14.23;;;;;;;17.35;44.01;100550.92;1803341;79;21119;-80
2021/04/23 00:43:03;;;;;;;53.48;19.42;;;;;;;17.36;43.99;100555.33;1803003;79;21492;-76
2021/04/23 00:45:31;;;;;;;68.67;21.97;;;;;;;17.30;44.09;100556.10;1779242;79;21610;-78
2021/04/23 00:48:01;;;;;;;81.32;24.15;;;;;;;17.22;44.22;100552.54;1803363;79;21120;-77
2021/04/23 00:50:33;;;;;;;62.95;20.43;;;;;;;17.14;44.42;100555.40;1803321;79;21141;-77
2021/04/23 00:53:03;;;;;;;52.50;17.35;;;;;;;17.12;44.54;100554.78;1803081;79;21092;-77
2021/04/23 00:55:31;;;;;;;40.20;14.90;;;;;;;17.13;44.57;100552.38;1802850;79;21124;-78
2021/04/23 00:57:59;;;;;;;25.97;12.70;;;;;;;17.14;44.61;100552.69;1802684;79;21136;-79
2021/04/23 01:00:26;;;;;;;18.15;11.68;;;;;;;17.15;44.63;100544.88;1803216;79;21607;-80
2021/04/23 01:02:54;;;;;;;19.50;12.75;;;;;;;17.15;44.61;100551.65;1803019;79;21220;-78
2021/04/23 01:05:31;;;;;;;18.67;12.20;;;;;;;17.14;44.64;100545.09;1802074;79;21614;-78
2021/04/23 01:07:59;;;;;;;15.00;11.40;;;;;;;17.17;44.67;100545.53;1802871;79;21187;-79
2021/04/23 01:10:27;;;;;;;14.95;12.13;;;;;;;17.22;44.58;100543.59;1801903;79;21143;-80
2021/04/23 01:12:55;;;;;;;15.15;12.37;;;;;;;17.20;44.55;100541.05;1764551;80;21536;-78
2021/04/23 01:15:23;;;;;;;16.37;12.93;;;;;;;17.16;44.73;100538.43;1763718;80;21200;-78
2021/04/23 01:17:52;;;;;;;17.40;12.00;;;;;;;17.15;44.81;100539.47;1793526;79;21182;-76
2021/04/23 01:20:21;;;;;;;13.32;11.68;;;;;;;17.21;44.77;100540.05;1764039;80;21154;-78
2021/04/23 01:22:49;;;;;;;18.05;11.83;;;;;;;17.20;44.83;100537.52;1793327;79;21106;-80
2021/04/23 01:25:19;;;;;;;13.72;10.40;;;;;;;17.17;45.00;100533.36;1770469;80;21117;-79
2021/04/23 01:27:47;;;;;;;15.35;11.05;;;;;;;17.18;44.99;100533.67;1763418;80;21174;-80
2021/04/23 01:30:18;;;;;;;14.30;10.93;;;;;;;17.20;45.08;100537.52;1765566;80;21170;-80
2021/04/23 01:32:45;;;;;;;13.13;11.55;;;;;;;17.23;45.18;100520.89;1780707;79;21572;-80
2021/04/23 01:35:19;;;;;;;14.63;11.63;;;;;;;17.25;45.14;100519.63;1748713;80;21235;-78
2021/04/23 01:37:49;;;;;;;16.05;12.55;;;;;;;17.27;45.18;100526.75;1785140;80;21177;-77
2021/04/23 01:40:17;;;;;;;15.85;11.55;;;;;;;17.29;45.19;100537.67;1841039;77;21580;-80
2021/04/23 01:42:45;;;;;;;17.30;12.40;;;;;;;17.30;45.14;100535.80;1763587;80;21098;-79
2021/04/23 01:45:14;;;;;;;18.23;13.20;;;;;;;17.29;45.20;100528.20;1774652;80;21574;-75
2021/04/23 01:47:42;;;;;;;25.75;14.35;;;;;;;17.30;45.15;100517.67;1773506;80;21046;-78
2021/04/23 01:50:14;;;;;;;20.10;12.75;;;;;;;17.29;45.22;100508.41;1778195;80;21593;-78
2021/04/23 01:52:41;;;;;;;22.90;13.60;;;;;;;17.31;45.18;100507.19;1775143;80;21089;-80
2021/04/23 01:55:11;;;;;;;25.82;14.28;;;;;;;17.32;45.17;100498.55;1767730;80;21150;-79
2021/04/23 01:57:38;;;;;;;20.88;13.55;;;;;;;17.33;45.18;100494.80;1800505;79;21118;-76
2021/04/23 02:00:17;;;;;;;17.90;12.55;;;;;;;17.30;45.33;100488.42;1762133;80;21174;-80
2021/04/23 02:02:45;;;;;;;15.83;12.00;;;;;;;17.22;45.48;100487.57;1776989;80;21616;-80
2021/04/23 02:05:13;;;;;;;16.27;12.70;;;;;;;17.09;45.74;100498.33;1787769;80;21081;-78
2021/04/23 02:07:44;;;;;;;21.73;14.78;;;;;;;16.91;46.16;100497.49;1767526;80;21518;-77
2021/04/23 02:10:18;;;;;;;19.02;14.00;;;;;;;16.63;46.76;100500.70;1763896;80;21588;-80
2021/04/23 02:12:46;;;;;;;17.27;13.05;;;;;;;16.69;46.72;100507.50;1792908;79;21513;-79
2021/04/23 02:15:15;;;;;;;19.50;13.48;;;;;;;16.62;46.86;100492.25;1780508;80;21186;-77
2021/04/23 02:17:43;;;;;;;14.43;11.18;;;;;;;16.53;47.21;100494.78;1792572;79;21075;-77
2021/04/23 02:20:16;;;;;;;14.80;11.50;;;;;;;16.44;47.33;100498.14;1793177;79;21102;-77
2021/04/23 02:22:44;;;;;;;16.57;13.20;;;;;;;16.33;47.65;100492.75;1756438;79;21157;-77
2021/04/23 02:25:14;;;;;;;14.73;12.07;;;;;;;16.31;47.86;100497.53;1792129;79;21059;-81
2021/04/23 02:27:41;;;;;;;16.25;12.58;;;;;;;16.30;47.94;100500.41;1787733;79;21098;-79
2021/04/23 02:30:15;;;;;;;16.52;12.90;;;;;;;16.27;47.93;100504.36;1783096;79;21161;-79
2021/04/23 02:32:42;;;;;;;15.43;12.90;;;;;;;16.22;48.08;100502.23;1782364;79;21078;-77
2021/04/23 02:35:13;;;;;;;15.70;12.20;;;;;;;16.23;48.12;100499.84;1787303;79;21110;-77
2021/04/23 02:37:41;;;;;;;16.60;12.70;;;;;;;16.31;48.12;100507.52;1770334;79;21094;-80
2021/04/23 02:40:11;;;;;;;15.32;12.70;;;;;;;16.38;48.13;100513.80;1787761;79;21122;-78
2021/04/23 02:42:40;;;;;;;18.82;12.93;;;;;;;16.47;48.10;100518.03;1790009;79;21130;-80
2021/04/23 02:45:10;;;;;;;20.00;14.63;;;;;;;16.56;47.96;100518.22;1786532;79;21134;-80
2021/04/23 02:47:39;;;;;;;33.92;17.90;;;;;;;16.64;47.85;100526.70;1764909;79;21161;-78
2021/04/23 02:50:10;;;;;;;55.58;21.90;;;;;;;16.75;47.72;100526.19;1786019;79;21605;-78
2021/04/23 02:52:38;;;;;;;52.95;22.98;;;;;;;16.85;47.57;100531.25;1770736;79;21118;-79
2021/04/23 02:55:08;;;;;;;45.55;20.30;;;;;;;16.93;47.47;100530.58;1786081;79;21593;-77
2021/04/23 02:57:36;;;;;;;33.53;17.62;;;;;;;17.02;47.32;100539.91;1782018;79;21169;-79
2021/04/23 03:00:09;;;;;;;26.50;14.30;;;;;;;17.09;47.13;100530.80;1787600;79;21569;-79
2021/04/23 03:02:37;;;;;;;20.57;13.48;;;;;;;17.13;46.93;100533.44;1786748;79;21186;-77
2021/04/23 03:05:05;;;;;;;21.85;15.65;;;;;;;17.12;46.96;100538.53;1763467;79;21177;-78
2021/04/23 03:07:34;;;;;;;20.65;14.33;;;;;;;17.13;46.97;100533.44;1781419;79;21476;-79
2021/04/23 03:10:01;;;;;;;27.90;17.55;;;;;;;17.10;46.98;100539.75;1776865;79;21170;-79
2021/04/23 03:12:29;;;;;;;37.58;20.50;;;;;;;17.08;47.04;100542.67;1789984;79;21218;-78
2021/04/23 03:14:58;;;;;;;67.08;28.77;;;;;;;17.14;47.01;100539.16;1770408;79;21205;-79
2021/04/23 03:17:26;;;;;;;74.27;31.57;;;;;;;17.18;46.87;100541.79;1780254;79;21189;-78
2021/04/23 03:19:54;;;;;;;58.78;24.25;;;;;;;17.16;46.89;100558.73;1776159;79;21644;-77
2021/04/23 03:22:22;;;;;;;54.80;22.13;;;;;;;17.18;46.95;100562.09;1781397;79;21787;-79
2021/04/23 03:24:50;;;;;;;49.83;19.87;;;;;;;17.22;46.90;100547.12;1780176;79;21155;-76
2021/04/23 03:27:19;;;;;;;25.50;16.35;;;;;;;17.27;46.79;100556.52;1794371;79;21146;-76
2021/04/23 03:29:46;;;;;;;22.82;16.75;;;;;;;17.31;46.59;100567.27;1776479;79;21185;-77
2021/04/23 03:32:14;;;;;;;22.27;16.77;;;;;;;17.33;46.64;100569.25;1788829;79;21708;-78
2021/04/23 03:34:42;;;;;;;27.20;18.73;;;;;;;17.37;46.58;100561.88;1795588;79;21601;-77
2021/04/23 03:37:10;;;;;;;25.43;19.35;;;;;;;17.43;46.41;100553.47;1786912;79;21165;-77
2021/04/23 03:39:40;;;;;;;25.05;17.10;;;;;;;17.44;46.32;100553.29;1767963;81;21177;-80
2021/04/23 03:42:08;;;;;;;21.75;16.57;;;;;;;17.37;46.27;100550.22;1781146;79;21106;-76
2021/04/23 03:44:36;;;;;;;42.83;22.52;;;;;;;17.30;46.43;100542.56;1767654;79;21472;-79
2021/04/23 03:47:04;;;;;;;82.37;31.65;;;;;;;17.23;46.55;100554.72;1769093;79;21759;-75
2021/04/23 03:49:34;;;;;;;93.85;33.67;;;;;;;17.16;46.71;100559.25;1768553;79;21133;-78
2021/04/23 03:52:03;;;;;;;104.12;37.30;;;;;;;17.14;46.90;100562.69;1719306;79;21126;-81
2021/04/23 03:54:33;;;;;;;77.32;30.55;;;;;;;17.13;47.02;100569.97;1774091;79;21142;-77
2021/04/23 03:57:00;;;;;;;51.75;23.85;;;;;;;17.13;47.10;100565.08;1792610;78;21190;-79
2021/04/23 03:59:28;;;;;;;52.27;24.63;;;;;;;17.12;47.11;100570.15;1784320;79;21630;-76
2021/04/23 04:01:56;;;;;;;40.52;21.07;;;;;;;17.13;47.19;100569.14;1771433;79;21707;-77
2021/04/23 04:04:24;;;;;;;44.42;22.15;;;;;;;17.15;47.09;100567.05;1763537;81;21704;-79
2021/04/23 04:06:52;;;;;;;60.15;24.55;;;;;;;17.21;46.99;100578.44;1768414;78;21595;-79
2021/04/23 04:09:21;;;;;;;46.55;19.87;;;;;;;17.33;46.85;100563.84;1747702;79;21173;-77
2021/04/23 04:11:50;;;;;;;30.08;15.65;;;;;;;17.41;46.82;100548.27;1784968;79;21185;-77
2021/04/23 04:14:18;;;;;;;27.98;16.23;;;;;;;17.42;46.87;100579.72;1790785;79;21185;-77
2021/04/23 04:16:46;;;;;;;23.95;15.78;;;;;;;17.49;47.02;100585.19;1749427;81;21144;-76
2021/04/23 04:19:13;;;;;;;38.70;20.35;;;;;;;17.58;47.13;100578.56;1730061;79;21170;-78
2021/04/23 04:21:42;;;;;;;51.85;22.80;;;;;;;17.66;46.99;100583.78;1795878;79;21737;-78
2021/04/23 04:24:09;;;;;;;42.15;21.77;;;;;;;17.72;46.80;100574.88;1783311;79;21647;-81
2021/04/23 04:26:37;;;;;;;27.85;16.62;;;;;;;17.77;46.66;100583.78;1761956;80;21177;-82
2021/04/23 04:29:05;;;;;;;21.73;15.48;;;;;;;17.71;46.61;100582.69;1778077;79;21325;-77
2021/04/23 04:31:35;;;;;;;20.23;16.17;;;;;;;17.71;46.53;100585.89;1783258;79;21173;-79
2021/04/23 04:34:03;;;;;;;21.55;15.60;;;;;;;17.60;46.72;100591.89;1782530;79;21190;-77
2021/04/23 04:36:30;;;;;;;22.67;15.40;;;;;;;17.68;46.53;100595.27;1789232;79;21217;-77
2021/04/23 04:38:58;;;;;;;19.07;14.25;;;;;;;17.66;46.45;100593.27;1776751;79;21531;-77
2021/04/23 04:41:26;;;;;;;19.55;14.18;;;;;;;17.59;46.50;100589.70;1787411;79;21692;-79
2021/04/23 04:43:54;;;;;;;27.15;15.93;;;;;;;17.56;46.63;100594.16;1799829;79;21195;-79
2021/04/23 04:46:22;;;;;;;28.00;17.80;;;;;;;17.55;46.67;100595.72;1799884;79;21187;-79
2021/04/23 04:48:50;;;;;;;28.35;17.20;;;;;;;17.54;46.79;100592.19;1789809;79;21233;-77
2021/04/23 04:51:17;;;;;;;26.97;16.52;;;;;;;17.56;46.86;100585.20;1777307;78;21205;-77
2021/04/23 04:53:45;;;;;;;26.65;17.45;;;;;;;17.57;46.73;100582.28;1730937;81;21178;-76
2021/04/23 04:56:15;;;;;;;21.10;15.90;;;;;;;17.55;46.79;100583.53;1786461;80;21169;-77
2021/04/23 04:58:42;;;;;;;20.77;15.55;;;;;;;17.57;46.81;100588.22;1786145;80;21225;-80
2021/04/23 05:01:16;;;;;;;20.68;15.90;;;;;;;17.56;46.76;100596.87;1767192;81;21202;-80
2021/04/23 05:03:44;;;;;;;21.23;15.60;;;;;;;17.57;46.68;100590.93;1798543;77;21188;-77
2021/04/23 05:06:12;;;;;;;20.97;15.98;;;;;;;17.61;46.57;100603.04;1725705;80;21221;-79
2021/04/23 05:08:40;;;;;;;22.20;16.42;;;;;;;17.65;46.66;100603.80;1832044;77;21178;-79
2021/04/23 05:11:07;;;;;;;20.65;16.27;;;;;;;17.75;46.70;100600.73;1864170;75;21212;-77
2021/04/23 05:13:35;;;;;;;20.97;14.63;;;;;;;17.83;46.56;100601.92;1763865;79;21227;-78
2021/04/23 05:16:03;;;;;;;19.12;14.58;;;;;;;17.87;46.35;100594.23;1774166;79;21703;-75
2021/04/23 05:18:31;;;;;;;18.90;15.32;;;;;;;17.89;46.50;100586.20;1785109;79;21191;-77
2021/04/23 05:20:59;;;;;;;23.22;15.60;;;;;;;17.98;46.46;100591.76;1763637;79;22276;-79
2021/04/23 05:23:27;;;;;;;27.45;16.77;;;;;;;18.09;46.45;100597.13;1791772;79;21197;-78
2021/04/23 05:25:55;;;;;;;25.57;16.55;;;;;;;18.13;46.25;100590.27;1783302;78;21541;-78
2021/04/23 05:28:23;;;;;;;24.37;16.23;;;;;;;18.14;46.14;100593.28;1791057;78;21113;-78
2021/04/23 05:30:52;;;;;;;22.75;13.65;;;;;;;18.17;46.11;100598.30;1785811;77;21652;-77
2021/04/23 05:33:20;;;;;;;21.48;13.25;;;;;;;18.18;46.01;100598.61;1762110;79;21119;-76
2021/04/23 05:35:48;;;;;;;19.32;15.08;;;;;;;18.19;45.98;100597.56;1784726;79;21109;-78
2021/04/23 05:38:16;;;;;;;21.52;14.83;;;;;;;18.21;45.95;100605.48;1772348;79;21111;-77
2021/04/23 05:40:45;;;;;;;16.52;13.83;;;;;;;18.27;45.82;100608.75;1778234;79;21151;-76
2021/04/23 05:43:14;;;;;;;17.87;13.95;;;;;;;18.29;45.89;100609.38;1759173;79;21872;-79
2021/04/23 05:45:43;;;;;;;17.90;14.70;;;;;;;18.38;45.86;100605.95;1745924;80;21108;-78
2021/04/23 05:48:13;;;;;;;18.15;14.05;;;;;;;18.49;45.76;100605.36;1750940;80;21110;-77
2021/04/23 05:50:41;;;;;;;16.50;13.43;;;;;;;18.58;45.64;100601.94;1767473;80;21571;-77
2021/04/23 05:53:09;;;;;;;16.60;13.10;;;;;;;18.70;45.42;100607.06;1765280;79;21113;-76
2021/04/23 05:55:37;;;;;;;19.17;14.78;;;;;;;18.81;45.19;100602.92;1770152;80;21110;-80
2021/04/23 05:58:05;;;;;;;20.15;14.80;;;;;;;18.88;45.00;100614.06;1771890;80;21159;-80
2021/04/23 06:00:34;;;;;;;22.05;16.12;;;;;;;18.93;44.91;100620.22;1772066;79;21162;-78
2021/04/23 06:03:05;;;;;;;27.00;15.60;;;;;;;18.97;44.90;100630.98;1767592;79;21153;-76
2021/04/23 06:05:33;;;;;;;19.55;14.68;;;;;;;18.96;44.91;100629.31;1781323;78;21731;-78
2021/04/23 06:08:05;;;;;;;18.23;14.10;;;;;;;18.97;44.83;100626.91;1795514;78;21134;-77
2021/04/23 06:10:33;;;;;;;18.60;14.10;;;;;;;18.97;44.86;100624.20;1787173;78;21171;-77
2021/04/23 06:13:01;;;;;;;19.80;16.05;;;;;;;18.97;45.07;100627.73;1796332;77;21218;-78
2021/04/23 06:15:29;;;;;;;21.23;15.18;;;;;;;19.02;45.13;100623.04;1764255;79;21205;-78
2021/04/23 06:17:59;;;;;;;21.17;16.02;;;;;;;19.10;45.40;100628.27;1786070;78;21992;-78
2021/04/23 06:20:31;;;;;;;21.35;16.00;;;;;;;19.23;45.57;100625.54;1761780;79;21261;-77
2021/04/23 06:22:59;;;;;;;20.95;15.70;;;;;;;19.39;45.60;100624.77;1781430;79;21340;-82
2021/04/23 06:25:27;;;;;;;20.25;15.68;;;;;;;19.51;45.20;100622.55;1752395;79;21202;-81
2021/04/23 06:27:55;;;;;;;19.73;15.32;;;;;;;19.61;44.76;100618.06;1776040;78;21202;-77
2021/04/23 06:30:29;;;;;;;21.17;16.00;;;;;;;19.63;44.69;100624.66;1774215;78;21487;-77
2021/04/23 06:32:59;;;;;;;22.80;15.65;;;;;;;19.63;44.55;100623.30;1759531;78;21217;-77
2021/04/23 06:35:29;;;;;;;18.90;15.70;;;;;;;19.61;44.62;100638.44;1759653;78;21195;-78
2021/04/23 06:37:57;;;;;;;18.23;14.98;;;;;;;19.60;44.59;100629.98;1730864;79;21720;-76
2021/04/23 06:40:25;;;;;;;19.40;15.83;;;;;;;19.59;44.49;100628.82;1788371;78;21194;-77
2021/04/23 06:42:52;;;;;;;18.02;15.05;;;;;;;19.54;44.52;100630.82;1795677;78;21283;-78
2021/04/23 06:45:22;;;;;;;18.27;14.50;;;;;;;19.49;44.55;100630.63;1788365;79;21165;-79
2021/04/23 06:47:50;;;;;;;18.02;14.38;;;;;;;19.44;44.65;100636.70;1790558;78;21195;-79
2021/04/23 06:50:20;;;;;;;21.77;14.70;;;;;;;19.40;44.83;100631.90;1794225;79;21313;-78
2021/04/23 06:52:53;;;;;;;16.93;13.30;;;;;;;19.40;44.97;100638.16;1727297;81;21517;-79
2021/04/23 06:55:21;;;;;;;15.60;13.22;;;;;;;19.42;45.02;100632.51;1792660;79;21263;-78
2021/04/23 06:57:51;;;;;;;17.50;14.00;;;;;;;19.48;44.77;100632.52;1771393;79;21126;-79
2021/04/23 07:00:27;;;;;;;14.23;12.73;;;;;;;19.52;44.62;100634.25;1772392;80;21233;-79
2021/04/23 07:02:55;;;;;;;16.90;14.05;;;;;;;19.59;44.51;100626.11;1761921;80;21645;-77
2021/04/23 07:05:24;;;;;;;17.70;13.53;;;;;;;19.64;44.23;100632.59;1797564;78;21118;-77
2021/04/23 07:07:53;;;;;;;14.98;13.40;;;;;;;19.69;44.20;100631.42;1766558;78;21105;-77
2021/04/23 07:10:40;;;;;;;17.67;14.30;;;;;;;19.72;44.27;100635.09;1774603;79;21163;-78
2021/04/23 07:13:12;;;;;;;16.77;13.48;;;;;;;19.79;44.42;100623.34;1752048;80;21110;-77
2021/04/23 07:15:42;;;;;;;15.68;13.70;;;;;;;19.92;44.22;100622.77;1819376;78;21593;-76
2021/04/23 07:18:09;;;;;;;16.07;12.70;;;;;;;20.04;44.05;100628.38;1822020;77;21237;-78
2021/04/23 07:20:39;;;;;;;13.80;12.30;;;;;;;20.13;43.93;100636.59;1838199;77;21701;-77
2021/04/23 07:23:07;;;;;;;15.05;12.95;;;;;;;20.18;43.42;100638.14;1837301;77;21181;-80
2021/04/23 07:25:35;;;;;;;14.85;12.47;;;;;;;20.19;43.02;100638.44;1830360;77;21181;-78
2021/04/23 07:28:04;;;;;;;13.78;11.70;;;;;;;20.21;42.89;100637.71;1833582;77;21217;-76
2021/04/23 07:30:34;;;;;;;18.15;12.40;;;;;;;20.23;42.88;100640.20;1836872;76;21626;-77
2021/04/23 07:33:05;;;;;;;13.70;12.10;;;;;;;20.32;42.82;100643.52;1855484;75;21101;-79
2021/04/23 07:35:34;;;;;;;15.03;12.33;;;;;;;20.38;42.65;100640.73;1738165;80;21115;-77
2021/04/23 07:38:03;;;;;;;14.55;11.78;;;;;;;20.47;42.45;100640.82;1763247;78;21113;-79
2021/04/23 07:40:31;;;;;;;16.75;12.50;;;;;;;20.54;42.36;100646.77;1761594;79;21122;-77
2021/04/23 07:43:00;;;;;;;13.40;10.85;;;;;;;20.55;42.18;100657.95;1765987;80;21117;-77
2021/04/23 07:45:31;;;;;;;14.05;10.90;;;;;;;20.48;41.81;100654.76;1765962;78;21081;-79
2021/04/23 07:47:59;;;;;;;15.18;10.25;;;;;;;20.39;41.29;100651.09;1777579;78;21577;-78
2021/04/23 07:50:27;;;;;;;11.78;9.35;;;;;;;20.28;41.17;100652.09;1774227;78;21216;-78
2021/04/23 07:52:58;;;;;;;13.85;8.35;;;;;;;20.23;41.56;100653.27;1765790;79;22727;-77
2021/04/23 07:55:26;;;;;;;12.65;8.63;;;;;;;20.30;41.40;100655.12;1783710;78;21197;-78
2021/04/23 07:57:54;;;;;;;13.70;8.33;;;;;;;20.41;41.18;100651.73;1759805;80;21171;-78
2021/04/23 08:00:24;;;;;;;13.13;8.10;;;;;;;20.57;41.22;100663.47;1797660;78;22164;-77
2021/04/23 08:02:52;;;;;;;14.70;7.92;;;;;;;20.69;40.52;100667.17;1765277;80;21808;-77
2021/04/23 08:05:22;;;;;;;16.73;8.63;;;;;;;20.74;39.94;100667.34;1779612;78;21114;-77
2021/04/23 08:07:52;;;;;;;17.07;7.97;;;;;;;20.69;39.74;100665.81;1769082;80;21176;-76
2021/04/23 08:10:19;;;;;;;10.82;7.95;;;;;;;20.63;39.50;100672.14;1774972;80;21157;-77
2021/04/23 08:12:48;;;;;;;9.40;7.62;;;;;;;20.51;39.36;100680.68;1838320;77;21110;-77
2021/04/23 08:15:18;;;;;;;12.82;8.20;;;;;;;20.37;39.28;100674.97;1850607;75;21184;-77
2021/04/23 08:17:47;;;;;;;14.13;8.13;;;;;;;20.22;39.19;100674.73;1831669;77;21137;-79
2021/04/23 08:20:17;;;;;;;15.28;8.45;;;;;;;20.06;39.25;100680.65;1827505;75;21145;-79
2021/04/23 08:22:45;;;;;;;12.63;7.70;;;;;;;19.92;39.59;100678.50;1830002;76;21134;-78
2021/04/23 08:25:16;;;;;;;12.50;8.95;;;;;;;19.78;39.70;100686.39;1825761;77;21114;-78
2021/04/23 08:27:46;;;;;;;14.33;8.45;;;;;;;19.72;39.63;100684.53;1834535;76;21126;-77
2021/04/23 08:30:15;;;;;;;18.55;9.55;;;;;;;19.63;39.67;100688.00;1831218;77;21546;-79
2021/04/23 08:32:43;;;;;;;17.87;10.72;;;;;;;19.54;39.85;100687.87;1837877;77;21531;-79
2021/04/23 08:35:15;;;;;;;16.80;10.98;;;;;;;19.41;40.05;100686.01;1846361;76;21444;-77
2021/04/23 08:37:44;;;;;;;17.87;11.22;;;;;;;19.30;40.48;100685.80;1842055;77;21097;-78
2021/04/23 08:40:15;;;;;;;20.97;11.15;;;;;;;19.21;41.02;100690.59;1844673;77;21611;-77
2021/04/23 08:42:44;;;;;;;17.85;9.98;;;;;;;19.16;40.93;100684.44;1843120;76;21118;-79
2021/04/23 08:45:16;;;;;;;23.67;11.50;;;;;;;19.06;41.20;100688.09;1847416;77;21169;-78
2021/04/23 08:47:45;;;;;;;19.15;9.03;;;;;;;19.07;41.04;100684.33;1841927;75;21113;-76
2021/04/23 08:50:15;;;;;;;19.12;9.05;;;;;;;19.02;40.51;100690.91;1819020;75;21145;-77
2021/04/23 08:52:44;;;;;;;14.23;8.45;;;;;;;19.05;40.84;100686.95;1788078;77;21108;-76
2021/04/23 08:55:15;;;;;;;12.65;7.80;;;;;;;19.11;40.88;100688.30;1792598;77;21401;-77
2021/04/23 08:57:42;;;;;;;15.83;7.97;;;;;;;19.22;40.94;100695.01;1761076;79;21139;-76
2021/04/23 09:00:11;;;;;;;16.93;7.90;;;;;;;19.28;40.77;100695.52;1761481;80;21138;-77
2021/04/23 09:02:39;;;;;;;12.07;7.85;;;;;;;19.32;40.57;100697.30;1767845;79;21131;-77
2021/04/23 09:05:09;;;;;;;15.72;7.08;;;;;;;19.33;40.25;100701.68;1787370;79;21126;-76
2021/04/23 09:07:39;;;;;;;12.03;7.25;;;;;;;19.31;39.95;100701.06;1747845;79;21875;-78
2021/04/23 09:10:12;;;;;;;10.78;7.53;;;;;;;19.30;40.09;100698.02;1790771;78;21166;-76
2021/04/23 09:12:40;;;;;;;8.68;7.10;;;;;;;19.24;39.92;100699.17;1780087;79;21414;-75
2021/04/23 09:15:23;;;;;;;10.63;6.90;;;;;;;19.19;39.95;100707.11;1758954;80;21225;-79
2021/04/23 09:18:11;;;;;;;11.50;6.78;;;;;;;19.14;40.11;100710.98;1733728;81;21139;-78
2021/04/23 09:20:56;;;;;;;12.25;7.25;;;;;;;19.08;39.97;100709.62;1758663;79;21123;-76
2021/04/23 09:23:24;;;;;;;17.90;6.83;;;;;;;19.00;39.93;100718.27;1720384;80;21165;-78
2021/04/23 09:25:56;;;;;;;13.50;7.65;;;;;;;18.90;40.00;100728.70;1789073;78;21126;-77
2021/04/23 09:28:42;;;;;;;11.18;6.78;;;;;;;18.76;40.20;100724.30;1792708;79;21120;-79
2021/04/23 09:31:32;;;;;;;9.68;6.55;;;;;;;18.59;40.32;100717.53;1754075;80;21137;-76
2021/04/23 09:34:06;;;;;;;11.48;6.80;;;;;;;18.48;40.51;100709.45;1772846;79;21138;-77
2021/04/23 09:36:46;;;;;;;11.97;6.90;;;;;;;18.44;40.78;100708.19;1769046;80;21129;-80
2021/04/23 09:39:22;;;;;;;13.38;7.30;;;;;;;18.42;40.89;100717.89;1757528;80;21170;-78
2021/04/23 09:42:04;;;;;;;12.05;6.55;;;;;;;18.40;40.98;100716.44;1762989;80;21108;-79
2021/04/23 09:44:47;;;;;;;9.78;6.75;;;;;;;18.40;41.03;100723.22;1819191;77;21708;-79
2021/04/23 09:47:20;;;;;;;13.32;6.45;;;;;;;18.36;41.12;100726.02;1830872;76;21651;-77
2021/04/23 09:49:54;;;;;;;12.45;6.62;;;;;;;18.30;41.22;100718.14;1821184;76;21156;-78
2021/04/23 09:52:22;;;;;;;12.35;6.55;;;;;;;18.26;41.38;100715.55;1834341;76;21109;-78
2021/04/23 09:54:52;;;;;;;8.88;5.60;;;;;;;18.31;41.19;100712.23;1828022;76;21564;-78
2021/04/23 09:57:26;;;;;;;8.75;6.03;;;;;;;18.28;41.26;100716.70;1855957;77;21190;-78
2021/04/23 09:59:59;;;;;;;15.00;6.47;;;;;;;18.21;41.24;100706.67;1854680;77;21098;-77
2021/04/23 10:02:29;;;;;;;8.93;6.03;;;;;;;18.21;41.13;100706.67;1839249;77;21624;-77
2021/04/23 10:04:58;;;;;;;12.98;6.42;;;;;;;18.20;41.03;100708.20;1840149;77;21208;-78
2021/04/23 10:07:31;;;;;;;11.20;6.15;;;;;;;18.15;41.14;100710.16;1830099;77;21165;-78
2021/04/23 10:10:15;;;;;;;8.70;5.97;;;;;;;18.11;41.10;100708.89;1841212;77;21100;-77
2021/04/23 10:12:54;;;;;;;11.38;5.87;;;;;;;18.08;41.16;100711.20;1849160;75;21188;-78
2021/04/23 10:28:47;;;;;;;10.75;6.75;;;;;;;18.09;41.25;100685.23;1796984;78;22663;-78
2021/04/23 10:31:15;;;;;;;7.75;6.45;;;;;;;18.06;41.28;100691.05;1801883;77;21228;-77
2021/04/23 10:33:43;;;;;;;9.95;6.28;;;;;;;18.07;41.33;100687.81;1793260;77;21127;-80
2021/04/23 10:36:13;;;;;;;12.05;6.75;;;;;;;18.08;41.28;100690.34;1764416;79;21230;-79
2021/04/23 10:38:42;;;;;;;9.83;6.15;;;;;;;18.09;41.31;100683.88;1748181;80;21555;-77
2021/04/23 10:41:11;;;;;;;10.03;6.37;;;;;;;18.11;41.16;100675.00;1744761;79;21191;-77
2021/04/23 10:43:57;;;;;;;9.73;6.03;;;;;;;18.12;40.97;100664.99;1752709;79;21531;-77
2021/04/23 10:46:25;;;;;;;10.55;6.35;;;;;;;18.13;40.91;100659.91;1758067;79;22437;-78
2021/04/23 10:49:07;;;;;;;12.55;6.28;;;;;;;18.15;40.96;100656.47;1754465;79;21239;-77
2021/04/23 10:51:48;;;;;;;10.08;7.75;;;;;;;18.22;40.91;100659.53;1784606;79;22690;-78
2021/04/23 10:54:17;;;;;;;12.07;6.75;;;;;;;18.21;40.78;100648.38;1733739;81;21197;-78
2021/04/23 10:56:53;;;;;;;17.50;10.38;;;;;;;18.22;40.45;100655.98;1780613;79;21484;-77
2021/04/23 10:59:31;;;;;;;14.15;8.68;;;;;;;18.23;40.52;100657.65;1749196;80;21201;-77
2021/04/23 11:02:17;;;;;;;14.03;8.55;;;;;;;18.23;40.55;100651.70;1781427;79;21240;-81
2021/04/23 11:04:58;;;;;;;13.87;8.50;;;;;;;18.20;40.30;100646.68;1772805;79;22328;-76
2021/04/23 11:07:26;;;;;;;10.82;6.42;;;;;;;18.18;40.10;100655.55;1786875;78;21776;-75
2021/04/23 11:10:01;;;;;;;11.45;7.30;;;;;;;18.15;40.02;100655.94;1775629;79;21247;-76
2021/04/23 11:12:30;;;;;;;12.05;6.50;;;;;;;18.12;40.03;100656.38;1780599;78;21157;-76
2021/04/23 11:15:16;;;;;;;8.33;5.58;;;;;;;18.09;40.22;100645.92;1772226;80;21188;-80
2021/04/23 11:17:44;;;;;;;13.10;7.35;;;;;;;18.09;40.36;100648.63;1783051;78;21125;-77
2021/04/23 11:20:30;;;;;;;8.33;5.40;;;;;;;18.09;40.48;100641.86;1778800;80;21208;-81
2021/04/23 11:22:58;;;;;;;11.22;5.20;;;;;;;18.10;40.59;100647.59;1793102;80;21121;-76
2021/04/23 11:25:26;;;;;;;7.00;4.92;;;;;;;18.10;40.71;100646.75;1784764;78;21163;-75
2021/04/23 11:28:05;;;;;;;10.90;5.55;;;;;;;18.10;40.70;100637.27;1788526;80;21487;-78
2021/04/23 11:30:56;;;;;;;;;;;;;;;18.11;40.67;100643.00;1785613;79;21121;-78
2021/04/23 11:33:53;;;;;;;12.98;5.70;;;;;;;18.12;40.69;100642.81;1759991;78;20252;-76
2021/04/23 11:36:34;;;;;;;12.28;6.75;;;;;;;18.07;40.39;100645.80;1788168;78;21185;-77
2021/04/23 11:39:06;;;;;;;15.93;6.97;;;;;;;18.00;40.24;100655.27;1786608;79;21755;-78